createdAt,value
2019-03-26T00:00:54.646Z,0
2019-03-26T00:01:56.742Z,0
2019-03-26T00:02:59.125Z,0
2019-03-26T00:04:05.950Z,0
2019-03-26T00:05:08.368Z,0
2019-03-26T00:06:10.475Z,0
2019-03-26T00:07:12.493Z,0
2019-03-26T00:08:14.546Z,0
2019-03-26T00:09:16.990Z,0
2019-03-26T00:10:19.113Z,0
2019-03-26T00:11:21.432Z,0
2019-03-26T00:12:23.445Z,0
2019-03-26T00:13:25.501Z,0
2019-03-26T00:14:27.833Z,0
2019-03-26T00:15:30.239Z,0
2019-03-26T00:16:32.334Z,0
2019-03-26T00:17:34.947Z,0
2019-03-26T00:18:36.990Z,0
2019-03-26T00:19:39.008Z,0
2019-03-26T00:20:41.444Z,0
2019-03-26T00:21:43.563Z,0
2019-03-26T00:22:45.654Z,0
2019-03-26T00:23:47.682Z,0
2019-03-26T00:24:49.694Z,0
2019-03-26T00:25:51.744Z,0
2019-03-26T00:26:53.743Z,0
2019-03-26T00:27:55.767Z,0
2019-03-26T00:28:57.768Z,0
2019-03-26T00:29:59.807Z,0
2019-03-26T00:31:02.355Z,0
2019-03-26T00:32:04.844Z,0
2019-03-26T00:33:06.856Z,0
2019-03-26T00:34:18.554Z,0
2019-03-26T00:35:22.213Z,0
2019-03-26T00:36:24.242Z,0
2019-03-26T00:37:26.609Z,0
2019-03-26T00:38:31.717Z,0
2019-03-26T00:39:34.103Z,0
2019-03-26T00:40:36.114Z,0
2019-03-26T00:41:42.227Z,0
2019-03-26T00:42:44.358Z,0
2019-03-26T00:43:46.463Z,0
2019-03-26T00:44:48.507Z,0
2019-03-26T00:45:50.949Z,0
2019-03-26T00:46:53.348Z,0
2019-03-26T00:47:56.045Z,0
2019-03-26T00:48:58.648Z,0
2019-03-26T00:50:00.656Z,0
2019-03-26T00:51:03.059Z,0
2019-03-26T00:52:05.068Z,0
2019-03-26T00:53:07.079Z,0
2019-03-26T00:54:09.166Z,0
2019-03-26T00:55:21.892Z,0
2019-03-26T00:56:25.362Z,0
2019-03-26T00:57:27.363Z,0
2019-03-26T00:58:30.095Z,0
2019-03-26T00:59:32.118Z,0
2019-03-26T01:00:34.216Z,0
2019-03-26T01:01:36.256Z,0
2019-03-26T01:02:38.263Z,0
2019-03-26T01:03:40.333Z,0
2019-03-26T01:04:43.402Z,0
2019-03-26T01:05:46.722Z,0
2019-03-26T01:06:58.045Z,0
2019-03-26T01:08:03.179Z,0
2019-03-26T01:09:05.564Z,0
2019-03-26T01:10:07.577Z,0
2019-03-26T01:11:09.886Z,0
2019-03-26T01:12:11.891Z,0
2019-03-26T01:13:13.903Z,0
2019-03-26T01:14:16.296Z,0
2019-03-26T01:15:18.301Z,0
2019-03-26T01:16:20.747Z,0
2019-03-26T01:17:23.695Z,0
2019-03-26T01:18:26.073Z,0
2019-03-26T01:19:28.683Z,0
2019-03-26T01:20:30.988Z,0
2019-03-26T01:21:33.002Z,0
2019-03-26T01:22:35.141Z,0
2019-03-26T01:23:38.215Z,0
2019-03-26T01:24:40.230Z,0
2019-03-26T01:25:42.266Z,0
2019-03-26T01:26:44.355Z,0
2019-03-26T01:27:46.363Z,0
2019-03-26T01:28:48.647Z,0
2019-03-26T01:29:50.648Z,0
2019-03-26T01:30:52.792Z,0
2019-03-26T01:31:55.131Z,0
2019-03-26T01:32:57.310Z,0
2019-03-26T01:33:59.760Z,0
2019-03-26T01:35:01.777Z,0
2019-03-26T01:36:04.084Z,0
2019-03-26T01:37:06.132Z,0
2019-03-26T01:38:08.420Z,0
2019-03-26T01:39:10.420Z,0
2019-03-26T01:40:12.704Z,0
2019-03-26T01:41:15.084Z,0
2019-03-26T01:42:17.873Z,0
2019-03-26T01:43:20.968Z,0
2019-03-26T01:44:23.019Z,0
2019-03-26T01:45:25.062Z,0
2019-03-26T01:46:27.346Z,0
2019-03-26T01:47:29.405Z,0
2019-03-26T01:48:31.402Z,0
2019-03-26T01:49:33.476Z,0
2019-03-26T01:50:35.511Z,0
2019-03-26T01:51:37.531Z,0
2019-03-26T01:52:39.530Z,0
2019-03-26T01:53:41.557Z,0
2019-03-26T01:54:43.682Z,0
2019-03-26T01:55:45.702Z,0
2019-03-26T01:56:47.717Z,0
2019-03-26T01:57:49.732Z,0
2019-03-26T01:58:51.737Z,0
2019-03-26T01:59:54.029Z,0
2019-03-26T02:00:56.414Z,0
2019-03-26T02:01:58.422Z,0
2019-03-26T02:03:01.218Z,0
2019-03-26T02:04:10.153Z,0
2019-03-26T02:05:21.133Z,0
2019-03-26T02:06:26.067Z,0
2019-03-26T02:07:28.073Z,0
2019-03-26T02:08:30.409Z,0
2019-03-26T02:09:32.802Z,0
2019-03-26T02:10:36.617Z,0
2019-03-26T02:11:38.765Z,0
2019-03-26T02:12:40.762Z,0
2019-03-26T02:13:43.174Z,0
2019-03-26T02:14:45.613Z,0
2019-03-26T02:15:48.033Z,0
2019-03-26T02:16:50.497Z,0
2019-03-26T02:17:52.620Z,0
2019-03-26T02:18:54.871Z,0
2019-03-26T02:19:57.884Z,0
2019-03-26T02:21:00.734Z,0
2019-03-26T02:22:02.740Z,0
2019-03-26T02:23:05.128Z,0
2019-03-26T02:24:07.210Z,0
2019-03-26T02:25:09.682Z,0
2019-03-26T02:26:11.685Z,0
2019-03-26T02:27:13.733Z,0
2019-03-26T02:28:16.109Z,0
2019-03-26T02:29:18.328Z,0
2019-03-26T02:30:20.338Z,0
2019-03-26T02:31:23.024Z,0
2019-03-26T02:32:25.220Z,0
2019-03-26T02:33:29.816Z,0
2019-03-26T02:34:37.490Z,0
2019-03-26T02:35:46.047Z,0
2019-03-26T02:36:54.890Z,0
2019-03-26T02:38:01.058Z,0
2019-03-26T02:39:03.382Z,0
2019-03-26T02:40:05.766Z,0
2019-03-26T02:41:08.347Z,0
2019-03-26T02:42:10.469Z,0
2019-03-26T02:43:12.476Z,0
2019-03-26T02:44:15.059Z,0
2019-03-26T02:45:17.089Z,0
2019-03-26T02:46:19.694Z,0
2019-03-26T02:47:22.100Z,0
2019-03-26T02:48:24.674Z,0
2019-03-26T02:49:26.975Z,0
2019-03-26T02:50:29.392Z,0
2019-03-26T02:51:32.004Z,0
2019-03-26T02:52:34.576Z,0
2019-03-26T02:53:37.146Z,0
2019-03-26T02:54:39.738Z,0
2019-03-26T02:55:42.041Z,0
2019-03-26T02:56:44.054Z,0
2019-03-26T02:57:46.721Z,0
2019-03-26T02:58:48.773Z,0
2019-03-26T02:59:51.351Z,0
2019-03-26T03:00:53.354Z,0
2019-03-26T03:01:55.373Z,0
2019-03-26T03:02:57.961Z,0
2019-03-26T03:03:59.987Z,0
2019-03-26T03:05:02.284Z,0
2019-03-26T03:06:04.599Z,0
2019-03-26T03:07:07.859Z,0
2019-03-26T03:08:09.914Z,0
2019-03-26T03:09:12.027Z,0
2019-03-26T03:10:14.680Z,0
2019-03-26T03:11:17.140Z,0
2019-03-26T03:12:19.793Z,0
2019-03-26T03:13:22.546Z,0
2019-03-26T03:14:25.121Z,0
2019-03-26T03:15:27.236Z,0
2019-03-26T03:16:29.543Z,0
2019-03-26T03:17:31.639Z,0
2019-03-26T03:18:34.250Z,0
2019-03-26T03:19:36.649Z,0
2019-03-26T03:20:38.675Z,0
2019-03-26T03:21:41.157Z,0
2019-03-26T03:22:43.173Z,0
2019-03-26T03:23:45.872Z,0
2019-03-26T03:24:47.918Z,0
2019-03-26T03:25:49.925Z,0
2019-03-26T03:26:52.331Z,0
2019-03-26T03:27:54.745Z,0
2019-03-26T03:28:56.778Z,0
2019-03-26T03:29:59.481Z,0
2019-03-26T03:31:02.832Z,0
2019-03-26T03:32:05.365Z,0
2019-03-26T03:33:07.422Z,0
2019-03-26T03:34:10.077Z,0
2019-03-26T03:35:12.178Z,0
2019-03-26T03:36:14.542Z,0
2019-03-26T03:37:16.557Z,0
2019-03-26T03:38:18.859Z,0
2019-03-26T03:39:21.146Z,0
2019-03-26T03:40:23.541Z,0
2019-03-26T03:41:25.551Z,0
2019-03-26T03:42:27.845Z,0
2019-03-26T03:43:29.935Z,0
2019-03-26T03:44:32.614Z,0
2019-03-26T03:45:34.631Z,0
2019-03-26T03:46:37.330Z,0
2019-03-26T03:47:39.410Z,0
2019-03-26T03:48:41.808Z,0
2019-03-26T03:49:44.129Z,0
2019-03-26T03:50:46.142Z,0
2019-03-26T03:51:48.186Z,0
2019-03-26T03:52:50.187Z,0
2019-03-26T03:53:52.473Z,0
2019-03-26T03:54:54.761Z,0
2019-03-26T03:55:56.768Z,0
2019-03-26T03:56:59.049Z,0
2019-03-26T03:58:02.166Z,0
2019-03-26T03:59:05.556Z,0
2019-03-26T04:00:07.855Z,0
2019-03-26T04:01:09.955Z,0
2019-03-26T04:02:12.282Z,0
2019-03-26T04:03:14.779Z,0
2019-03-26T04:04:17.134Z,0
2019-03-26T04:05:19.540Z,0
2019-03-26T04:06:21.614Z,0
2019-03-26T04:07:23.901Z,0
2019-03-26T04:08:25.905Z,0
2019-03-26T04:09:28.305Z,0
2019-03-26T04:10:30.336Z,0
2019-03-26T04:11:32.921Z,0
2019-03-26T04:12:35.508Z,0
2019-03-26T04:13:37.913Z,0
2019-03-26T04:14:40.201Z,0
2019-03-26T04:15:42.496Z,0
2019-03-26T04:16:45.180Z,0
2019-03-26T04:17:47.857Z,0
2019-03-26T04:18:49.866Z,0
2019-03-26T04:19:52.206Z,0
2019-03-26T04:20:54.217Z,0
2019-03-26T04:21:56.239Z,0
2019-03-26T04:22:58.554Z,0
2019-03-26T04:24:01.123Z,0
2019-03-26T04:25:03.465Z,0
2019-03-26T04:26:05.484Z,0
2019-03-26T04:27:08.062Z,0
2019-03-26T04:28:10.464Z,0
2019-03-26T04:29:12.848Z,0
2019-03-26T04:30:14.859Z,4
2019-03-26T04:31:16.880Z,4
2019-03-26T04:32:18.904Z,0
2019-03-26T04:33:21.227Z,4
2019-03-26T04:34:23.693Z,4
2019-03-26T04:35:25.757Z,4
2019-03-26T04:36:28.194Z,8
2019-03-26T04:37:30.224Z,8
2019-03-26T04:38:32.257Z,8
2019-03-26T04:39:34.697Z,8
2019-03-26T04:40:37.014Z,12
2019-03-26T04:41:39.345Z,16
2019-03-26T04:42:41.965Z,16
2019-03-26T04:43:44.025Z,20
2019-03-26T04:44:46.073Z,24
2019-03-26T04:45:48.099Z,24
2019-03-26T04:46:50.515Z,32
2019-03-26T04:47:52.535Z,36
2019-03-26T04:48:54.647Z,44
2019-03-26T04:49:57.052Z,52
2019-03-26T04:50:59.097Z,64
2019-03-26T04:52:01.114Z,72
2019-03-26T04:53:03.432Z,88
2019-03-26T04:54:06.236Z,100
2019-03-26T04:55:08.267Z,120
2019-03-26T04:56:10.665Z,136
2019-03-26T04:57:12.703Z,160
2019-03-26T04:58:14.799Z,180
2019-03-26T04:59:16.819Z,200
2019-03-26T05:00:18.857Z,220
2019-03-26T05:01:21.170Z,248
2019-03-26T05:02:23.204Z,284
2019-03-26T05:03:25.260Z,308
2019-03-26T05:04:27.294Z,328
2019-03-26T05:05:29.330Z,352
2019-03-26T05:06:37.662Z,404
2019-03-26T05:07:40.725Z,388
2019-03-26T05:08:42.738Z,340
2019-03-26T05:09:44.774Z,320
2019-03-26T05:10:49.183Z,324
2019-03-26T05:11:52.080Z,320
2019-03-26T05:12:54.191Z,340
2019-03-26T05:13:56.294Z,412
2019-03-26T05:14:58.707Z,480
2019-03-26T05:16:00.728Z,488
2019-03-26T05:17:02.765Z,524
2019-03-26T05:18:04.813Z,632
2019-03-26T05:19:06.845Z,692
2019-03-26T05:20:09.271Z,740
2019-03-26T05:21:11.283Z,844
2019-03-26T05:22:23.442Z,912
2019-03-26T05:23:26.507Z,912
2019-03-26T05:24:28.549Z,932
2019-03-26T05:25:30.650Z,1036
2019-03-26T05:26:32.700Z,1088
2019-03-26T05:27:44.775Z,1136
2019-03-26T05:28:48.198Z,1244
2019-03-26T05:29:50.241Z,1308
2019-03-26T05:30:52.259Z,1432
2019-03-26T05:31:54.288Z,1456
2019-03-26T05:32:56.401Z,1408
2019-03-26T05:33:58.429Z,1492
2019-03-26T05:35:00.757Z,1704
2019-03-26T05:36:03.077Z,1952
2019-03-26T05:37:05.378Z,2200
2019-03-26T05:38:07.702Z,2348
2019-03-26T05:39:09.746Z,2380
2019-03-26T05:40:11.770Z,2680
2019-03-26T05:41:13.793Z,2356
2019-03-26T05:42:15.841Z,2132
2019-03-26T05:43:17.861Z,2152
2019-03-26T05:44:19.895Z,2220
2019-03-26T05:45:21.936Z,2096
2019-03-26T05:46:23.956Z,2076
2019-03-26T05:47:25.988Z,2196
2019-03-26T05:48:28.011Z,2240
2019-03-26T05:49:30.347Z,2120
2019-03-26T05:50:32.640Z,2104
2019-03-26T05:51:34.686Z,2440
2019-03-26T05:52:36.719Z,2832
2019-03-26T05:53:38.744Z,3112
2019-03-26T05:54:40.787Z,3356
2019-03-26T05:55:42.805Z,3252
2019-03-26T05:56:44.837Z,2796
2019-03-26T05:57:46.856Z,2384
2019-03-26T05:58:49.195Z,2220
2019-03-26T05:59:51.226Z,2016
2019-03-26T06:00:53.253Z,1892
2019-03-26T06:01:55.585Z,2104
2019-03-26T06:02:57.685Z,2180
2019-03-26T06:03:59.768Z,2520
2019-03-26T06:05:02.126Z,2800
2019-03-26T06:06:04.145Z,3028
2019-03-26T06:07:06.180Z,3456
2019-03-26T06:08:08.894Z,3792
2019-03-26T06:09:10.937Z,3856
2019-03-26T06:10:13.025Z,4196
2019-03-26T06:11:15.360Z,3868
2019-03-26T06:12:17.396Z,3644
2019-03-26T06:13:19.700Z,3240
2019-03-26T06:14:22.018Z,2688
2019-03-26T06:15:24.068Z,2536
2019-03-26T06:16:37.790Z,2832
2019-03-26T06:17:41.039Z,3392
2019-03-26T06:18:43.096Z,3988
2019-03-26T06:19:45.497Z,4692
2019-03-26T06:20:47.529Z,5244
2019-03-26T06:21:49.943Z,5176
2019-03-26T06:22:52.001Z,5008
2019-03-26T06:23:54.052Z,5016
2019-03-26T06:24:56.441Z,4984
2019-03-26T06:25:58.487Z,4664
2019-03-26T06:27:00.541Z,3848
2019-03-26T06:28:02.611Z,3236
2019-03-26T06:29:04.932Z,3036
2019-03-26T06:30:06.962Z,3272
2019-03-26T06:31:09.381Z,3712
2019-03-26T06:32:11.705Z,4088
2019-03-26T06:33:13.725Z,4080
2019-03-26T06:34:15.753Z,4324
2019-03-26T06:35:17.791Z,5100
2019-03-26T06:36:19.813Z,5064
2019-03-26T06:37:21.849Z,4920
2019-03-26T06:38:23.880Z,4584
2019-03-26T06:39:25.902Z,4588
2019-03-26T06:40:28.325Z,4484
2019-03-26T06:41:30.359Z,4632
2019-03-26T06:42:32.387Z,5148
2019-03-26T06:43:34.427Z,5560
2019-03-26T06:44:36.458Z,5876
2019-03-26T06:45:38.848Z,5928
2019-03-26T06:46:41.172Z,5800
2019-03-26T06:47:43.214Z,5596
2019-03-26T06:48:45.229Z,5648
2019-03-26T06:49:47.261Z,6004
2019-03-26T06:50:49.585Z,5892
2019-03-26T06:51:51.614Z,5484
2019-03-26T06:52:54.227Z,5400
2019-03-26T06:53:56.249Z,5540
2019-03-26T06:54:58.291Z,5640
2019-03-26T06:56:00.321Z,5456
2019-03-26T06:57:02.368Z,5604
2019-03-26T06:58:04.703Z,5524
2019-03-26T06:59:07.027Z,5308
2019-03-26T07:00:09.350Z,5224
2019-03-26T07:01:11.770Z,5564
2019-03-26T07:02:14.116Z,5412
2019-03-26T07:03:16.435Z,5972
2019-03-26T07:04:18.467Z,6080
2019-03-26T07:05:20.485Z,6972
2019-03-26T07:06:22.530Z,6876
2019-03-26T07:07:31.205Z,6860
2019-03-26T07:08:34.028Z,9268
2019-03-26T07:09:36.082Z,11296
2019-03-26T07:10:38.114Z,10080
2019-03-26T07:11:40.145Z,10372
2019-03-26T07:12:42.225Z,9988
2019-03-26T07:13:44.254Z,7572
2019-03-26T07:14:46.276Z,5220
2019-03-26T07:15:48.316Z,4340
2019-03-26T07:16:50.345Z,4756
2019-03-26T07:17:52.623Z,5552
2019-03-26T07:18:54.959Z,5956
2019-03-26T07:19:57.283Z,7308
2019-03-26T07:20:59.308Z,9760
2019-03-26T07:22:01.357Z,9212
2019-03-26T07:23:03.378Z,7724
2019-03-26T07:24:05.413Z,8504
2019-03-26T07:25:07.466Z,7356
2019-03-26T07:26:09.581Z,10116
2019-03-26T07:27:11.639Z,12412
2019-03-26T07:28:13.684Z,13224
2019-03-26T07:29:15.998Z,15948
2019-03-26T07:30:18.046Z,19616
2019-03-26T07:31:20.085Z,21568
2019-03-26T07:32:22.407Z,16760
2019-03-26T07:33:24.449Z,15652
2019-03-26T07:34:26.460Z,13564
2019-03-26T07:35:28.523Z,15476
2019-03-26T07:36:31.490Z,13912
2019-03-26T07:37:44.419Z,12512
2019-03-26T07:38:47.782Z,15228
2019-03-26T07:39:49.815Z,12516
2019-03-26T07:40:51.850Z,9880
2019-03-26T07:41:53.894Z,9912
2019-03-26T07:42:55.955Z,11100
2019-03-26T07:43:58.074Z,10756
2019-03-26T07:45:00.518Z,9828
2019-03-26T07:46:02.588Z,9740
2019-03-26T07:47:04.622Z,8828
2019-03-26T07:48:06.650Z,7524
2019-03-26T07:49:08.695Z,7444
2019-03-26T07:50:13.821Z,6376
2019-03-26T07:51:16.067Z,5828
2019-03-26T07:52:18.115Z,5356
2019-03-26T07:53:20.602Z,6140
2019-03-26T07:54:22.636Z,6040
2019-03-26T07:55:24.678Z,7292
2019-03-26T07:56:26.987Z,8696
2019-03-26T07:57:29.025Z,7708
2019-03-26T07:58:33.153Z,8548
2019-03-26T07:59:35.361Z,7848
2019-03-26T08:00:37.433Z,8372
2019-03-26T08:01:39.760Z,10160
2019-03-26T08:02:41.800Z,12228
2019-03-26T08:03:43.830Z,15664
2019-03-26T08:04:45.855Z,14472
2019-03-26T08:05:48.192Z,11844
2019-03-26T08:06:50.237Z,13000
2019-03-26T08:07:57.960Z,12412
2019-03-26T08:09:01.092Z,13068
2019-03-26T08:10:03.145Z,12944
2019-03-26T08:11:05.184Z,11544
2019-03-26T08:12:07.207Z,12724
2019-03-26T08:13:09.277Z,13932
2019-03-26T08:14:12.030Z,14692
2019-03-26T08:15:14.219Z,16856
2019-03-26T08:16:16.638Z,13612
2019-03-26T08:17:18.712Z,11240
2019-03-26T08:18:20.822Z,13700
2019-03-26T08:19:23.251Z,14472
2019-03-26T08:20:25.288Z,14952
2019-03-26T08:21:27.600Z,12540
2019-03-26T08:22:29.634Z,12836
2019-03-26T08:23:31.658Z,15452
2019-03-26T08:24:33.972Z,17592
2019-03-26T08:25:36.301Z,17228
2019-03-26T08:26:38.618Z,15356
2019-03-26T08:27:40.650Z,13096
2019-03-26T08:28:43.085Z,14020
2019-03-26T08:29:45.122Z,15972
2019-03-26T08:30:49.966Z,17120
2019-03-26T08:31:52.325Z,20160
2019-03-26T08:32:54.342Z,22880
2019-03-26T08:33:56.380Z,24576
2019-03-26T08:34:58.695Z,24320
2019-03-26T08:36:00.741Z,31936
2019-03-26T08:37:03.169Z,25184
2019-03-26T08:38:12.128Z,21248
2019-03-26T08:39:15.702Z,19104
2019-03-26T08:40:17.814Z,16360
2019-03-26T08:41:19.861Z,14664
2019-03-26T08:42:21.912Z,13660
2019-03-26T08:43:23.946Z,12528
2019-03-26T08:44:25.995Z,12124
2019-03-26T08:45:28.018Z,13364
2019-03-26T08:46:30.120Z,14604
2019-03-26T08:47:32.162Z,15244
2019-03-26T08:48:34.201Z,19904
2019-03-26T08:49:36.261Z,27680
2019-03-26T08:50:38.287Z,57856
2019-03-26T08:51:40.316Z,23104
2019-03-26T08:52:42.414Z,15436
2019-03-26T08:53:44.450Z,12696
2019-03-26T08:54:46.476Z,14700
2019-03-26T08:55:48.805Z,14700
2019-03-26T08:56:50.884Z,16616
2019-03-26T08:57:52.924Z,18784
2019-03-26T08:58:54.975Z,16924
2019-03-26T08:59:57.020Z,15132
2019-03-26T09:00:59.040Z,16552
2019-03-26T09:02:01.094Z,21888
2019-03-26T09:03:03.419Z,31616
2019-03-26T09:04:05.478Z,34624
2019-03-26T09:05:07.554Z,24160
2019-03-26T09:06:09.868Z,25568
2019-03-26T09:07:11.907Z,37568
2019-03-26T09:08:24.697Z,14368
2019-03-26T09:09:28.101Z,18816
2019-03-26T09:10:30.414Z,16712
2019-03-26T09:11:32.466Z,15292
2019-03-26T09:12:34.785Z,12412
2019-03-26T09:13:36.810Z,20448
2019-03-26T09:14:38.869Z,36768
2019-03-26T09:15:40.891Z,29472
2019-03-26T09:16:42.949Z,31520
2019-03-26T09:17:45.013Z,28960
2019-03-26T09:18:47.073Z,26688
2019-03-26T09:19:49.104Z,22976
2019-03-26T09:20:51.146Z,21728
2019-03-26T09:21:53.188Z,18976
2019-03-26T09:22:55.216Z,20928
2019-03-26T09:23:57.269Z,18432
2019-03-26T09:24:59.309Z,16892
2019-03-26T09:26:01.585Z,15680
2019-03-26T09:27:03.957Z,14184
2019-03-26T09:28:06.009Z,14628
2019-03-26T09:29:08.059Z,16468
2019-03-26T09:30:10.140Z,13428
2019-03-26T09:31:12.568Z,11352
2019-03-26T09:32:14.594Z,11004
2019-03-26T09:33:16.919Z,12196
2019-03-26T09:34:19.038Z,15428
2019-03-26T09:35:21.111Z,16356
2019-03-26T09:36:23.161Z,15296
2019-03-26T09:37:25.501Z,15340
2019-03-26T09:38:38.209Z,15748
2019-03-26T09:39:41.432Z,17424
2019-03-26T09:40:43.475Z,19008
2019-03-26T09:41:45.813Z,17444
2019-03-26T09:42:47.858Z,15324
2019-03-26T09:43:50.298Z,16116
2019-03-26T09:44:52.334Z,18560
2019-03-26T09:45:57.895Z,18144
2019-03-26T09:47:00.235Z,17976
2019-03-26T09:48:17.670Z,18624
2019-03-26T09:49:19.716Z,19840
2019-03-26T09:50:21.754Z,25024
2019-03-26T09:51:23.795Z,30560
2019-03-26T09:52:25.838Z,26592
2019-03-26T09:53:27.884Z,22240
2019-03-26T09:54:29.917Z,23424
2019-03-26T09:55:31.955Z,37792
2019-03-26T09:56:34.014Z,44800
2019-03-26T09:57:36.048Z,38560
2019-03-26T09:58:38.391Z,90016
2019-03-26T09:59:40.418Z,114816
2019-03-26T10:00:42.503Z,92544
2019-03-26T10:01:45.594Z,70816
2019-03-26T10:02:47.918Z,45408
2019-03-26T10:03:49.971Z,41760
2019-03-26T10:04:52.007Z,37760
2019-03-26T10:05:54.047Z,26592
2019-03-26T10:06:56.088Z,61952
2019-03-26T10:07:58.124Z,28032
2019-03-26T10:09:00.152Z,45056
2019-03-26T10:10:02.195Z,101088
2019-03-26T10:11:04.247Z,25504
2019-03-26T10:12:06.283Z,21632
2019-03-26T10:13:08.360Z,19264
2019-03-26T10:14:10.741Z,16240
2019-03-26T10:15:12.797Z,14128
2019-03-26T10:16:14.904Z,11676
2019-03-26T10:17:16.960Z,8436
2019-03-26T10:18:19.030Z,5584
2019-03-26T10:19:25.417Z,4048
2019-03-26T10:20:27.475Z,3480
2019-03-26T10:21:30.062Z,4516
2019-03-26T10:22:32.117Z,6240
2019-03-26T10:23:34.151Z,8456
2019-03-26T10:24:36.206Z,9620
2019-03-26T10:25:38.271Z,11072
2019-03-26T10:26:40.451Z,11488
2019-03-26T10:27:42.540Z,11416
2019-03-26T10:28:44.586Z,11404
2019-03-26T10:29:46.949Z,12000
2019-03-26T10:30:49.038Z,13492
2019-03-26T10:31:51.078Z,15848
2019-03-26T10:32:53.127Z,17764
2019-03-26T10:33:55.171Z,19744
2019-03-26T10:34:57.522Z,20096
2019-03-26T10:35:59.930Z,21216
2019-03-26T10:37:02.358Z,21824
2019-03-26T10:38:04.436Z,26944
2019-03-26T10:39:06.479Z,30400
2019-03-26T10:40:08.527Z,42304
2019-03-26T10:41:10.971Z,76672
2019-03-26T10:42:13.105Z,70272
2019-03-26T10:43:15.176Z,38656
2019-03-26T10:44:17.268Z,43552
2019-03-26T10:45:19.307Z,39168
2019-03-26T10:46:21.825Z,33216
2019-03-26T10:47:25.341Z,40096
2019-03-26T10:48:27.378Z,42016
2019-03-26T10:49:33.192Z,40096
2019-03-26T10:50:35.599Z,60704
2019-03-26T10:51:37.640Z,90176
2019-03-26T10:52:39.678Z,37280
2019-03-26T10:53:41.735Z,19200
2019-03-26T10:54:44.045Z,13960
2019-03-26T10:55:46.106Z,11504
2019-03-26T10:56:48.261Z,9452
2019-03-26T10:57:50.703Z,8224
2019-03-26T10:58:52.837Z,7556
2019-03-26T10:59:54.885Z,7232
2019-03-26T11:00:56.926Z,7408
2019-03-26T11:01:59.976Z,7828
2019-03-26T11:03:03.188Z,11876
2019-03-26T11:04:07.639Z,14476
2019-03-26T11:05:09.895Z,16444
2019-03-26T11:06:11.942Z,17148
2019-03-26T11:07:14.005Z,19616
2019-03-26T11:08:16.058Z,19264
2019-03-26T11:09:23.220Z,19712
2019-03-26T11:10:29.475Z,18336
2019-03-26T11:11:31.507Z,19936
2019-03-26T11:12:33.555Z,22048
2019-03-26T11:13:35.590Z,23904
2019-03-26T11:14:37.673Z,26176
2019-03-26T11:15:39.700Z,31648
2019-03-26T11:16:42.717Z,44928
2019-03-26T11:17:44.753Z,54976
2019-03-26T11:18:47.078Z,49664
2019-03-26T11:19:49.134Z,19168
2019-03-26T11:21:01.632Z,21344
2019-03-26T11:22:05.420Z,35680
2019-03-26T11:23:07.453Z,32000
2019-03-26T11:24:09.498Z,37344
2019-03-26T11:25:12.250Z,30528
2019-03-26T11:26:14.813Z,29632
2019-03-26T11:27:16.857Z,30080
2019-03-26T11:28:19.554Z,28672
2019-03-26T11:29:21.893Z,25376
2019-03-26T11:30:24.310Z,26528
2019-03-26T11:31:26.377Z,27776
2019-03-26T11:32:31.941Z,26208
2019-03-26T11:33:33.987Z,25792
2019-03-26T11:34:36.028Z,25728
2019-03-26T11:35:38.727Z,25056
2019-03-26T11:36:40.785Z,24640
2019-03-26T11:37:42.829Z,23328
2019-03-26T11:38:44.923Z,20480
2019-03-26T11:39:46.978Z,19584
2019-03-26T11:40:49.351Z,19808
2019-03-26T11:41:51.389Z,18432
2019-03-26T11:42:53.436Z,18976
2019-03-26T11:43:55.462Z,18688
2019-03-26T11:44:59.335Z,18304
2019-03-26T11:46:01.730Z,15664
2019-03-26T11:47:03.783Z,13264
2019-03-26T11:48:05.817Z,15316
2019-03-26T11:49:07.862Z,17292
2019-03-26T11:50:10.285Z,15716
2019-03-26T11:51:12.614Z,15104
2019-03-26T11:52:14.663Z,15504
2019-03-26T11:53:16.686Z,19296
2019-03-26T11:54:18.728Z,22592
2019-03-26T11:55:21.895Z,21888
2019-03-26T11:56:24.405Z,17752
2019-03-26T11:57:26.712Z,19008
2019-03-26T11:58:30.634Z,17792
2019-03-26T11:59:33.430Z,17616
2019-03-26T12:00:35.849Z,16812
2019-03-26T12:01:38.200Z,19648
2019-03-26T12:02:40.223Z,20096
2019-03-26T12:03:42.651Z,20128
2019-03-26T12:04:44.782Z,19424
2019-03-26T12:05:46.837Z,20160
2019-03-26T12:06:48.876Z,20192
2019-03-26T12:07:50.916Z,20224
2019-03-26T12:08:52.964Z,22880
2019-03-26T12:09:54.989Z,24096
2019-03-26T12:10:57.140Z,23712
2019-03-26T12:11:59.185Z,21664
2019-03-26T12:13:01.221Z,22624
2019-03-26T12:14:03.278Z,21312
2019-03-26T12:15:05.319Z,21472
2019-03-26T12:16:07.364Z,22592
2019-03-26T12:17:09.680Z,22560
2019-03-26T12:18:11.719Z,21792
2019-03-26T12:19:13.754Z,23552
2019-03-26T12:20:16.087Z,24864
2019-03-26T12:21:18.172Z,45152
2019-03-26T12:22:20.209Z,26496
2019-03-26T12:23:22.259Z,26784
2019-03-26T12:24:24.300Z,22624
2019-03-26T12:25:26.399Z,26560
2019-03-26T12:26:28.463Z,69632
2019-03-26T12:27:30.506Z,69408
2019-03-26T12:28:32.935Z,24288
2019-03-26T12:29:34.970Z,23904
2019-03-26T12:30:37.406Z,20160
2019-03-26T12:31:39.742Z,16160
2019-03-26T12:32:42.065Z,18912
2019-03-26T12:33:44.100Z,20416
2019-03-26T12:34:46.539Z,19680
2019-03-26T12:35:48.863Z,18464
2019-03-26T12:36:50.901Z,17436
2019-03-26T12:37:52.942Z,16220
2019-03-26T12:38:54.993Z,13972
2019-03-26T12:39:59.597Z,13288
2019-03-26T12:41:02.983Z,12568
2019-03-26T12:42:05.067Z,11840
2019-03-26T12:43:07.094Z,11992
2019-03-26T12:44:09.150Z,14792
2019-03-26T12:45:11.474Z,22368
2019-03-26T12:46:13.526Z,27584
2019-03-26T12:47:16.140Z,29760
2019-03-26T12:48:18.564Z,36128
2019-03-26T12:49:20.611Z,41088
2019-03-26T12:50:22.659Z,39296
2019-03-26T12:51:24.695Z,43232
2019-03-26T12:52:27.086Z,29536
2019-03-26T12:53:29.126Z,25056
2019-03-26T12:54:31.261Z,31136
2019-03-26T12:55:33.285Z,21280
2019-03-26T12:56:35.615Z,22048
2019-03-26T12:57:37.658Z,26112
2019-03-26T12:58:39.961Z,25376
2019-03-26T12:59:42.026Z,24928
2019-03-26T13:00:44.338Z,26752
2019-03-26T13:01:46.461Z,44960
2019-03-26T13:02:48.534Z,23200
2019-03-26T13:03:50.638Z,17444
2019-03-26T13:04:52.681Z,13696
2019-03-26T13:05:55.046Z,12668
2019-03-26T13:06:57.161Z,12260
2019-03-26T13:07:59.200Z,12136
2019-03-26T13:09:01.235Z,12772
2019-03-26T13:10:13.145Z,14020
2019-03-26T13:11:17.191Z,14756
2019-03-26T13:12:19.376Z,13696
2019-03-26T13:13:21.413Z,13716
2019-03-26T13:14:23.730Z,11892
2019-03-26T13:15:25.781Z,9500
2019-03-26T13:16:28.100Z,7672
2019-03-26T13:17:30.147Z,6036
2019-03-26T13:18:32.482Z,4916
2019-03-26T13:19:34.508Z,4748
2019-03-26T13:20:36.555Z,5768
2019-03-26T13:21:38.888Z,7992
2019-03-26T13:22:40.926Z,10348
2019-03-26T13:23:42.976Z,11192
2019-03-26T13:24:45.023Z,11084
2019-03-26T13:25:47.057Z,10928
2019-03-26T13:26:49.254Z,9852
2019-03-26T13:27:51.333Z,8948
2019-03-26T13:28:53.406Z,9188
2019-03-26T13:29:55.453Z,12620
2019-03-26T13:30:57.497Z,15452
2019-03-26T13:31:59.518Z,15128
2019-03-26T13:33:01.579Z,15384
2019-03-26T13:34:04.476Z,13596
2019-03-26T13:35:06.513Z,13648
2019-03-26T13:36:08.932Z,14720
2019-03-26T13:37:11.058Z,11600
2019-03-26T13:38:13.095Z,9752
2019-03-26T13:39:15.145Z,8428
2019-03-26T13:40:26.885Z,7504
2019-03-26T13:41:29.865Z,5896
2019-03-26T13:42:32.208Z,5448
2019-03-26T13:43:34.250Z,5024
2019-03-26T13:44:36.309Z,4800
2019-03-26T13:45:38.342Z,5184
2019-03-26T13:46:40.395Z,6476
2019-03-26T13:47:42.520Z,6884
2019-03-26T13:48:44.858Z,6700
2019-03-26T13:49:47.207Z,7604
2019-03-26T13:50:49.717Z,9904
2019-03-26T13:51:51.775Z,14204
2019-03-26T13:52:54.198Z,24000
2019-03-26T13:53:56.252Z,40416
2019-03-26T13:54:58.291Z,23264
2019-03-26T13:56:00.398Z,21440
2019-03-26T13:57:02.445Z,22624
2019-03-26T13:58:04.865Z,19392
2019-03-26T13:59:06.967Z,19872
2019-03-26T14:00:09.006Z,21024
2019-03-26T14:01:11.065Z,31232
2019-03-26T14:02:13.091Z,16580
2019-03-26T14:03:15.129Z,48128
2019-03-26T14:04:17.551Z,42496
2019-03-26T14:05:19.604Z,40192
2019-03-26T14:06:21.943Z,20992
2019-03-26T14:07:23.973Z,35808
2019-03-26T14:08:26.013Z,40864
2019-03-26T14:09:28.101Z,22528
2019-03-26T14:10:40.061Z,20416